Latest Weather Observations for Parawa West

IDS60901

Issued at 4:51 am CDT Friday 24 March 2017 (issued every 10 minutes, with the page automatically refreshed every 10 minutes)

About weather observations | Map of Adelaide area stations | Latest observations for Adelaide area | Other Formats
Station Details ID: 023875 Name: SECOND VALLEY FOREST AWS Lat: -35.57 Lon: 138.29 Height: 341.0 m
Data from the previous 72 hours. | See also: Recent months at Parawa West
Date/Time
CDT
Temp
°C
App
Temp
°C
Dew
Point
°C
Rel
Hum
%
Delta-T
°C
Wind Press
QNH
hPa
Press
MSL
hPa
Rain since
9am
mm
Dir  Spd
km/h
Gust
km/h
Spd
kts
Gust
kts
24/04:30am 19.3 16.2 13.5 69 3.4 ENE 22 33 12 18 1015.3 1014.5 0.0
24/04:00am 18.9 15.0 13.3 70 3.2 ENE 26 35 14 19 1015.0 1014.2 0.0
24/03:30am 19.1 15.2 13.3 69 3.3 ENE 26 39 14 21 1015.3 1014.5 0.0
24/03:00am 17.4 15.2 14.3 82 1.8 E 19 24 10 13 1016.0 1015.2 0.0
24/02:30am 17.4 15.9 14.1 81 1.9 ESE 15 20 8 11 1016.9 1016.1 0.0
24/02:00am 17.9 15.9 14.0 78 2.3 E 17 22 9 12 1017.0 1016.2 0.0
24/01:30am 17.9 15.7 14.4 80 2.0 ESE 19 24 10 13 1017.1 1016.3 0.0
24/01:00am 17.4 15.6 14.5 83 1.7 ESE 17 22 9 12 1017.6 1016.8 0.0
24/12:30am 17.4 15.7 14.7 84 1.6 SE 17 20 9 11 1017.9 1017.1 0.0
24/12:00am 17.4 15.5 15.2 87 1.3 SE 19 24 10 13 1018.1 1017.3 0.0
 
Date/Time
CDT
Temp
°C
App
Temp
°C
Dew
Point
°C
Rel
Hum
%
Delta-T
°C
Wind Press
QNH
hPa
Press
MSL
hPa
Rain since
9am
mm
Dir  Spd
km/h
Gust
km/h
Spd
kts
Gust
kts
23/11:30pm 17.1 15.1 15.6 91 0.9 SE 20 28 11 15 1018.3 1017.5 0.0
23/11:00pm 15.9 14.0 15.7 99 0.1 SE 20 22 11 12 1018.3 1017.5 0.0
23/10:30pm 14.9 14.3 14.7 99 0.1 SSE 11 15 6 8 1018.5 1017.7 0.0
23/10:00pm 15.3 14.9 15.3 100 0.0 S 11 13 6 7 1018.6 1017.8 0.0
23/09:30pm 15.4 14.7 15.4 100 0.0 S 13 17 7 9 1018.1 1017.3 0.0
23/09:00pm 15.7 14.7 15.7 100 0.0 SSE 15 19 8 10 1017.9 1017.1 0.0
23/08:30pm 15.8 14.0 15.6 99 0.1 SSE 19 22 10 12 1017.5 1016.7 0.0
23/08:00pm 15.8 14.0 15.5 98 0.2 SSE 19 24 10 13 1017.1 1016.3 0.0
23/07:30pm 15.9 14.0 15.1 95 0.5 SSE 19 24 10 13 1017.1 1016.3 0.0
23/07:00pm 15.9 13.6 14.6 92 0.8 SE 20 26 11 14 1016.8 1016.0 0.0
23/06:30pm 16.4 14.1 14.6 89 1.0 SE 20 28 11 15 1016.5 1015.7 0.0
23/06:00pm 17.5 14.9 14.8 84 1.6 SSE 22 28 12 15 1016.9 1016.1 0.0
23/05:30pm 18.1 15.6 15.2 83 1.7 SE 22 30 12 16 1016.7 1015.9 0.0
23/05:00pm 18.0 14.6 14.7 81 1.9 SE 26 30 14 16 1016.6 1015.8 0.0
23/04:30pm 18.5 14.7 14.6 78 2.3 SE 28 35 15 19 1016.6 1015.8 0.0
23/04:00pm 18.4 14.6 14.7 79 2.2 SE 28 33 15 18 1016.7 1015.9 0.0
23/03:30pm 18.1 14.0 14.8 81 1.9 SE 30 35 16 19 1016.6 1015.8 0.0
23/03:00pm 18.5 14.5 15.2 81 2.0 SE 30 35 16 19 1016.8 1016.0 0.0
23/02:30pm 18.5 14.6 15.4 82 1.8 SE 30 35 16 19 1017.0 1016.2 0.0
23/02:00pm 18.3 13.8 15.0 81 2.0 SSE 32 39 17 21 1017.4 1016.5 0.0
23/01:30pm 18.3 15.4 15.0 81 2.0 SE 24 30 13 16 1018.0 1017.2 0.0
23/01:00pm 18.0 15.5 15.1 83 1.7 SE 22 30 12 16 1018.4 1017.6 0.0
23/12:30pm 17.6 15.0 14.9 84 1.6 SE 22 30 12 16 1018.7 1017.9 0.0
23/12:00pm 16.8 13.8 14.8 88 1.2 SE 24 32 13 17 1019.2 1018.4 0.0
23/11:30am 16.4 13.7 14.6 89 1.0 SE 22 28 12 15 1019.8 1019.0 0.0
23/11:00am 15.8 13.0 14.3 91 0.9 SE 22 28 12 15 1019.8 1019.0 0.0
23/10:30am 16.1 13.9 15.0 93 0.6 SE 20 28 11 15 1019.6 1018.8 0.0
23/10:00am 15.9 13.7 14.8 93 0.6 SE 20 32 11 17 1019.3 1018.5 0.0
23/09:30am 15.4 13.2 14.8 96 0.3 SE 20 28 11 15 1019.6 1018.8 0.0
23/09:00am 15.3 13.0 14.7 96 0.3 SE 20 32 11 17 1019.7 1018.9 1.4
23/08:30am 15.2 12.5 14.7 97 0.3 SE 22 30 12 16 1019.0 1018.2 1.4
23/08:00am 15.2 12.9 14.7 97 0.3 SE 20 28 11 15 1019.2 1018.4 1.4
23/07:30am 15.2 12.5 14.7 97 0.3 SE 22 32 12 17 1018.7 1017.9 1.4
23/07:00am 15.1 11.7 14.8 98 0.2 SE 26 33 14 18 1018.0 1017.2 1.4
23/06:30am 15.2 11.5 14.9 98 0.2 SE 28 39 15 21 1017.6 1016.8 1.4
23/06:00am 15.1 11.4 14.9 99 0.1 SE 28 39 15 21 1017.6 1016.8 1.4
23/05:30am 15.0 11.2 14.8 99 0.1 SE 28 37 15 20 1017.8 1017.0 1.4
23/05:00am 15.3 12.4 15.0 98 0.2 SE 24 33 13 18 1018.2 1017.4 1.4
23/04:30am 15.4 13.3 15.1 98 0.2 SE 20 28 11 15 1018.5 1017.7 1.4
23/04:00am 15.2 12.2 14.9 98 0.2 SE 24 32 13 17 1018.6 1017.8 1.4
23/03:30am 15.3 12.4 15.0 98 0.2 SE 24 33 13 18 1018.6 1017.8 1.4
23/03:00am 15.2 12.6 14.9 98 0.2 SE 22 33 12 18 1018.6 1017.8 1.4
23/02:30am 15.2 11.9 14.9 98 0.2 SE 26 39 14 21 1018.6 1017.8 1.4
23/02:00am 15.3 12.0 15.0 98 0.2 SE 26 33 14 18 1018.8 1018.0 1.4
23/01:30am 15.4 11.3 14.9 97 0.3 SE 30 44 16 24 1018.4 1017.6 1.4
23/01:00am 15.5 11.9 15.2 98 0.2 SE 28 39 15 21 1018.9 1018.1 1.4
23/12:30am 15.4 11.4 15.2 99 0.1 SE 30 43 16 23 1019.0 1018.2 1.4
23/12:00am 15.3 10.9 15.1 99 0.1 SE 32 43 17 23 1019.0 1018.2 1.4
 
Date/Time
CDT
Temp
°C
App
Temp
°C
Dew
Point
°C
Rel
Hum
%
Delta-T
°C
Wind Press
QNH
hPa
Press
MSL
hPa
Rain since
9am
mm
Dir  Spd
km/h
Gust
km/h
Spd
kts
Gust
kts
22/11:30pm 15.2 10.2 15.0 99 0.1 SE 35 48 19 26 1018.9 1018.1 1.4
22/11:00pm 15.1 10.0 14.9 99 0.1 SE 35 48 19 26 1019.0 1018.2 1.4
22/10:33pm 15.1 10.0 14.9 99 0.1 SE 35 54 19 29 1019.0 1018.2 1.4
22/10:30pm 15.1 10.4 14.9 99 0.1 SE 33 50 18 27 1019.0 1018.2 1.4
22/10:00pm 15.1 11.3 14.8 98 0.2 SE 28 37 15 20 1019.3 1018.5 1.4
22/09:30pm 15.0 10.4 14.7 98 0.2 SSE 32 44 17 24 1019.0 1018.2 1.4
22/09:00pm 14.9 10.3 14.6 98 0.2 SSE 32 41 17 22 1018.6 1017.8 1.4
22/08:30pm 14.9 10.0 14.4 97 0.3 SE 33 41 18 22 1018.6 1017.8 1.4
22/08:00pm 14.9 9.7 14.4 97 0.3 SE 35 50 19 27 1018.5 1017.7 1.4
22/07:30pm 14.9 9.4 14.6 98 0.2 SSE 37 48 20 26 1017.9 1017.1 1.4
22/07:00pm 14.8 7.4 14.3 97 0.3 SSE 46 57 25 31 1017.1 1016.3 1.4
22/06:30pm 14.9 8.5 14.4 97 0.3 SSE 41 56 22 30 1017.3 1016.4 1.4
22/06:00pm 15.0 9.0 14.4 96 0.3 SSE 39 52 21 28 1017.4 1016.5 1.4
22/05:30pm 15.2 8.9 14.6 96 0.3 SSE 41 54 22 29 1017.3 1016.4 1.4
22/05:00pm 15.3 8.6 14.7 96 0.3 SSE 43 56 23 30 1016.9 1016.1 1.4
22/04:30pm 15.4 9.6 14.9 97 0.3 SSE 39 52 21 28 1017.4 1016.5 1.4
22/04:00pm 15.6 10.2 15.1 97 0.3 SSE 37 48 20 26 1017.6 1016.8 1.4
22/03:30pm 15.9 11.0 15.4 97 0.3 SSE 35 48 19 26 1017.8 1017.0 1.4
22/03:00pm 15.6 9.5 15.1 97 0.3 SSE 41 54 22 29 1017.6 1016.8 1.4
22/02:30pm 15.8 10.0 15.0 95 0.5 SE 39 56 21 30 1017.4 1016.5 1.4
22/02:00pm 15.6 9.9 15.1 97 0.3 SE 39 54 21 29 1017.6 1016.8 1.4
22/01:30pm 15.7 10.1 15.4 98 0.2 SE 39 54 21 29 1017.8 1017.0 1.4
22/01:00pm 15.4 8.7 15.2 99 0.1 SE 44 57 24 31 1017.7 1016.9 1.4
22/12:30pm 15.3 9.2 15.1 99 0.1 SSE 41 56 22 30 1018.3 1017.5 1.4
22/12:00pm 15.2 9.5 15.2 100 0.0 SSE 39 57 21 31 1018.6 1017.8 1.4
22/11:30am 15.5 9.9 15.5 100 0.0 SSE 39 52 21 28 1018.7 1017.9 1.2
22/11:00am 15.2 10.6 15.2 100 0.0 SSE 33 43 18 23 1019.2 1018.4 1.0
22/10:30am 15.2 10.8 15.2 100 0.0 SSE 32 41 17 22 1019.1 1018.3 0.8
22/10:00am 15.4 10.9 15.4 100 0.0 SSE 33 44 18 24 1018.9 1018.1 0.6
22/09:30am 15.5 11.0 15.3 99 0.1 SSE 33 46 18 25 1018.6 1017.8 0.4
22/09:00am 15.6 11.1 15.3 98 0.2 SE 33 44 18 24 1018.0 1017.2 0.6
22/08:30am 15.6 10.7 15.4 99 0.1 SE 35 48 19 26 1017.5 1016.7 0.6
22/08:06am 15.5 11.2 15.3 99 0.1 SE 32 50 17 27 1017.0 1016.2 0.4
22/08:00am 15.5 11.2 15.3 99 0.1 SE 32 44 17 24 1017.0 1016.2 0.4
22/07:30am 15.4 10.0 15.1 98 0.2 SE 37 50 20 27 1016.3 1015.5 0.4
22/07:00am 15.3 9.9 15.1 99 0.1 SE 37 50 20 27 1016.1 1015.3 0.4
22/06:30am 15.3 9.6 15.1 99 0.1 SE 39 54 21 29 1015.6 1014.8 0.4
22/06:00am 15.5 10.2 15.3 99 0.1 SE 37 54 20 29 1015.6 1014.8 0.4
22/05:30am 15.3 9.9 15.1 99 0.1 SE 37 54 20 29 1015.4 1014.6 0.2
22/05:00am 15.4 10.1 15.2 99 0.1 SSE 37 52 20 28 1015.3 1014.5 0.2
22/04:30am 15.5 9.1 15.3 99 0.1 SE 43 57 23 31 1015.0 1014.2 0.2
22/04:00am 15.6 10.0 15.4 99 0.1 SE 39 56 21 30 1015.2 1014.4 0.0
22/03:30am 15.2 8.6 14.9 98 0.2 SE 43 57 23 31 1014.7 1013.8 0.0
22/03:00am 15.8 9.8 15.5 98 0.2 SE 41 54 22 29 1014.8 1013.9 0.0
22/02:30am 15.9 11.5 15.6 98 0.2 SE 33 50 18 27 1015.2 1014.4 0.0
22/02:00am 15.8 10.1 15.3 97 0.3 SE 39 52 21 28 1015.0 1014.2 0.0
22/01:30am 16.0 10.1 15.7 98 0.2 SE 41 52 22 28 1014.8 1013.9 0.0
22/01:00am 16.0 10.5 15.7 98 0.2 SE 39 50 21 27 1014.9 1014.1 0.0
22/12:38am 16.1 11.4 15.9 99 0.1 SE 35 56 19 30 1014.8 1013.9 0.0
22/12:30am 16.2 10.8 16.0 99 0.1 SE 39 52 21 28 1014.7 1013.8 0.0
22/12:00am 16.2 11.2 16.0 99 0.1 SSE 37 52 20 28 1014.9 1014.1 0.0
 
Date/Time
CDT
Temp
°C
App
Temp
°C
Dew
Point
°C
Rel
Hum
%
Delta-T
°C
Wind Press
QNH
hPa
Press
MSL
hPa
Rain since
9am
mm
Dir  Spd
km/h
Gust
km/h
Spd
kts
Gust
kts
21/11:30pm 16.3 11.7 16.1 99 0.1 SSE 35 50 19 27 1014.9 1014.1 0.0
21/11:00pm 16.2 11.9 16.0 99 0.1 SSE 33 46 18 25 1014.8 1013.9 0.0
21/10:30pm 16.4 11.4 16.2 99 0.1 SSE 37 50 20 27 1014.7 1013.8 0.0
21/10:00pm 16.5 12.0 16.3 99 0.1 SSE 35 50 19 27 1014.5 1013.6 0.0
21/09:30pm 16.4 11.5 16.4 100 0.0 SSE 37 50 20 27 1014.0 1013.2 0.0
21/09:00pm 16.6 12.6 16.6 100 0.0 SSE 33 46 18 25 1013.7 1012.9 0.0
21/08:30pm 16.9 13.6 16.9 100 0.0 SSE 30 39 16 21 1013.3 1012.5 0.0
21/08:00pm 16.7 14.4 16.7 100 0.0 SSE 24 32 13 17 1012.9 1012.1 0.0
21/07:30pm 16.6 13.9 16.6 100 0.0 SSE 26 33 14 18 1012.6 1011.8 0.0
21/07:00pm 16.8 13.8 16.8 100 0.0 SSE 28 35 15 19 1012.3 1011.4 0.0
21/06:30pm 16.8 13.3 16.6 99 0.1 SSE 30 39 16 21 1012.3 1011.4 0.0
21/06:00pm 17.1 14.0 16.6 97 0.3 SSE 28 35 15 19 1012.0 1011.1 0.0
21/05:30pm 17.5 14.6 17.0 97 0.3 SSE 28 37 15 20 1011.8 1010.9 0.0
21/05:00pm 17.9 15.7 16.8 93 0.7 SSE 24 32 13 17 1011.6 1010.7 0.0
21/04:30pm 18.8 16.9 16.6 87 1.3 SSE 22 30 12 16 1011.4 1010.5 0.0
21/04:00pm 19.8 17.3 17.0 84 1.7 SSE 26 32 14 17 1011.2 1010.3 0.0
21/03:30pm 23.9 19.1 12.8 49 6.5 SE 30 41 16 22 1010.9 1010.1 0.0
21/03:00pm 24.1 20.2 13.3 51 6.4 ESE 26 33 14 18 1011.2 1010.3 0.0
21/02:30pm 23.8 19.9 14.5 56 5.6 ESE 28 37 15 20 1011.4 1010.5 0.0
21/02:00pm 23.4 20.6 16.4 64 4.3 ESE 26 35 14 19 1011.9 1011.0 0.0
21/01:30pm 22.3 19.5 15.4 65 4.2 SE 24 32 13 17 1012.1 1011.2 0.0
21/01:00pm 23.0 19.4 15.3 62 4.7 ESE 28 35 15 19 1012.2 1011.3 0.0
21/12:30pm 22.4 18.3 15.0 63 4.5 ESE 30 41 16 22 1012.1 1011.2 0.0
21/12:00pm 22.3 18.8 15.4 65 4.2 ESE 28 35 15 19 1012.1 1011.2 0.0
21/11:30am 21.7 18.1 15.3 67 3.9 SE 28 35 15 19 1012.2 1011.3 0.0
21/11:00am 21.4 17.9 15.5 69 3.6 SE 28 37 15 20 1012.3 1011.4 0.0
21/10:30am 20.5 16.7 16.7 79 2.3 SE 32 41 17 22 1012.0 1011.1 0.0
21/10:00am 19.2 14.6 16.2 83 1.8 SE 35 46 19 25 1011.9 1011.0 0.0
21/09:30am 18.8 15.2 17.1 90 1.0 SE 32 41 17 22 1011.9 1011.0 0.0
21/09:00am 17.8 14.0 16.8 94 0.6 SE 32 43 17 23 1011.7 1010.8 0.0
21/08:30am 17.9 14.5 15.7 87 1.3 SE 28 35 15 19 1011.6 1010.7 0.0
21/08:00am 17.2 15.7 15.2 88 1.2 ESE 17 22 9 12 1011.4 1010.5 0.0
21/07:30am 16.6 14.4 15.0 90 0.9 SE 20 30 11 16 1011.2 1010.3 0.0
21/07:00am 15.9 12.7 15.4 97 0.3 SSE 26 33 14 18 1011.2 1010.3 0.0
21/06:30am 16.1 12.3 15.8 98 0.2 S 30 44 16 24 1011.3 1010.4 0.0
21/06:00am 18.5 16.8 18.2 98 0.2 S 24 35 13 19 1011.5 1010.6 0.0
21/05:30am 19.0 17.9 17.8 93 0.7 SE 20 26 11 14 1009.9 1009.1 0.0
21/05:00am 19.2 17.3 17.7 91 0.9 ESE 24 33 13 18 1009.6 1008.7 0.0

Latest Capital City Observations: Canberra | Sydney | Melbourne | Brisbane | Adelaide | Perth | Hobart | Darwin

Other Formats:

Comma delimited format used in spreadsheet applications
http://www.bom.gov.au/fwo/IDS60901/IDS60901.94811.axf

JavaScript Object Notation format (JSON) in row-major order
http://www.bom.gov.au/fwo/IDS60901/IDS60901.94811.json